Time;durP1;ratioP1;P1;durP2;ratioP2;P2;SDS_P1;SDS_P2;PMS_P1;PMS_P2;Temp;Humidity;BMP_temperature;BMP_pressure;BME280_temperature;BME280_humidity;BME280_pressure;Samples;Min_cycle;Max_cycle;Signal;HPM_P1;HPM_P2
2023/10/21 00:01:17;;;;;;;0.60;0.28;;;16.80;99.90;;;;;;6267187;28;20041;-79
2023/10/21 00:04:22;;;;;;;1.45;0.20;;;16.80;99.90;;;;;;6274870;28;20055;-78
2023/10/21 00:07:24;;;;;;;0.30;0.20;;;16.80;99.90;;;;;;6261384;28;20046;-76
2023/10/21 00:10:25;;;;;;;0.30;0.30;;;16.80;99.90;;;;;;6272970;28;20052;-80
2023/10/21 00:13:27;;;;;;;3.17;0.40;;;16.70;99.90;;;;;;6271687;28;20049;-79
2023/10/21 00:16:29;;;;;;;0.77;0.20;;;16.70;99.90;;;;;;6273966;28;20047;-80
2023/10/21 00:19:32;;;;;;;3.08;0.30;;;16.60;99.90;;;;;;6265368;28;20359;-78
2023/10/21 00:22:35;;;;;;;0.30;0.20;;;16.60;99.90;;;;;;6268557;28;20045;-79
2023/10/21 00:25:37;;;;;;;2.35;0.35;;;16.60;99.90;;;;;;6275347;28;20497;-78
2023/10/21 00:28:39;;;;;;;0.20;0.20;;;16.60;99.90;;;;;;6274977;28;20044;-78
2023/10/21 00:31:40;;;;;;;0.28;0.28;;;16.60;99.90;;;;;;6266592;28;20047;-79
2023/10/21 00:34:44;;;;;;;0.25;0.25;;;16.60;99.90;;;;;;6271610;28;20069;-79
2023/10/21 00:37:45;;;;;;;0.30;0.30;;;16.60;99.90;;;;;;6270891;28;20053;-79
2023/10/21 00:40:51;;;;;;;0.70;0.70;;;16.60;99.90;;;;;;6273637;28;20045;-77
2023/10/21 00:43:53;;;;;;;2.10;0.47;;;16.60;99.90;;;;;;6274489;28;20049;-77
2023/10/21 00:46:54;;;;;;;0.60;0.60;;;16.60;99.90;;;;;;6274417;28;20041;-77
2023/10/21 00:49:58;;;;;;;0.40;0.40;;;16.50;99.90;;;;;;6274050;28;20717;-81
2023/10/21 00:52:59;;;;;;;0.28;0.28;;;16.50;99.90;;;;;;6274357;28;20052;-80
2023/10/21 00:56:01;;;;;;;0.30;0.30;;;16.40;99.90;;;;;;6274739;28;20417;-78
2023/10/21 00:59:03;;;;;;;0.20;0.20;;;16.30;99.90;;;;;;6274834;28;20055;-81
2023/10/21 01:02:05;;;;;;;1.27;0.30;;;16.30;99.90;;;;;;6274418;28;20059;-81
2023/10/21 01:05:09;;;;;;;1.02;0.50;;;16.20;99.90;;;;;;6273629;28;20049;-80
2023/10/21 01:08:10;;;;;;;2.63;0.60;;;16.20;99.90;;;;;;6274511;28;20059;-80
2023/10/21 01:11:13;;;;;;;0.35;0.30;;;16.10;99.90;;;;;;6274261;28;20041;-80
2023/10/21 01:14:14;;;;;;;0.57;0.30;;;16.10;99.90;;;;;;6274906;28;20045;-78
2023/10/21 01:17:17;;;;;;;0.22;0.22;;;16.10;99.90;;;;;;6274530;28;20685;-78
2023/10/21 01:20:20;;;;;;;2.55;0.28;;;16.10;99.90;;;;;;6274407;28;20045;-81
2023/10/21 01:23:23;;;;;;;0.73;0.52;;;16.00;99.90;;;;;;6275434;28;20126;-78
2023/10/21 01:26:25;;;;;;;0.47;0.25;;;16.00;99.90;;;;;;6274388;28;20390;-79
2023/10/21 01:29:26;;;;;;;0.30;0.30;;;16.00;99.90;;;;;;6273906;28;20053;-78
2023/10/21 01:32:29;;;;;;;0.30;0.30;;;16.00;99.90;;;;;;6268301;28;20132;-78
2023/10/21 01:35:31;;;;;;;2.13;0.30;;;16.00;99.90;;;;;;6268470;28;20052;-80
2023/10/21 01:38:34;;;;;;;0.30;0.30;;;16.00;99.90;;;;;;6273952;28;20060;-79
2023/10/21 01:41:35;;;;;;;0.30;0.30;;;16.00;99.90;;;;;;6274450;28;20045;-77
2023/10/21 01:44:37;;;;;;;0.20;0.20;;;16.00;99.90;;;;;;6274509;28;20045;-80
2023/10/21 01:47:39;;;;;;;1.33;0.32;;;15.90;99.90;;;;;;6273145;28;20053;-80
2023/10/21 01:50:40;;;;;;;0.30;0.30;;;16.00;99.90;;;;;;6266071;28;20057;-78
2023/10/21 01:53:44;;;;;;;0.20;0.20;;;16.00;99.90;;;;;;6274945;28;20044;-81
2023/10/21 01:56:46;;;;;;;1.50;0.52;;;16.00;99.90;;;;;;6274837;28;20121;-81
2023/10/21 01:59:47;;;;;;;0.17;0.17;;;16.00;99.90;;;;;;6273642;28;20045;-80
2023/10/21 02:02:51;;;;;;;0.77;0.30;;;16.00;99.90;;;;;;6278426;28;20053;-79
2023/10/21 02:05:52;;;;;;;0.40;0.30;;;15.80;99.90;;;;;;6271162;28;20056;-81
2023/10/21 02:08:55;;;;;;;0.63;0.50;;;15.70;99.90;;;;;;6280471;28;20041;-79
2023/10/21 02:11:57;;;;;;;0.30;0.30;;;15.40;99.90;;;;;;6278806;28;20053;-80
2023/10/21 02:14:59;;;;;;;1.05;0.40;;;15.20;99.90;;;;;;6278334;28;20055;-79
2023/10/21 02:18:01;;;;;;;0.25;0.25;;;14.90;99.90;;;;;;6278414;28;20049;-78
2023/10/21 02:21:05;;;;;;;0.30;0.30;;;14.80;99.90;;;;;;6269467;28;20366;-80
2023/10/21 02:24:09;;;;;;;0.45;0.40;;;14.60;99.90;;;;;;6264489;28;20041;-78
2023/10/21 02:27:12;;;;;;;1.67;0.30;;;14.60;99.90;;;;;;6270156;28;20045;-79
2023/10/21 02:30:16;;;;;;;0.68;0.40;;;14.50;99.90;;;;;;6279029;28;20044;-80
2023/10/21 02:33:18;;;;;;;0.80;0.60;;;14.50;99.90;;;;;;6278711;28;20051;-79
2023/10/21 02:36:20;;;;;;;0.20;0.20;;;14.50;99.90;;;;;;6262738;28;20052;-77
2023/10/21 02:39:23;;;;;;;0.25;0.25;;;14.60;99.90;;;;;;6279494;28;20119;-78
2023/10/21 02:42:25;;;;;;;0.55;0.50;;;14.70;99.90;;;;;;6261948;28;20049;-80
2023/10/21 02:45:27;;;;;;;0.65;0.40;;;14.80;99.90;;;;;;6276870;28;20059;-79
2023/10/21 02:48:28;;;;;;;0.38;0.38;;;14.90;99.90;;;;;;6277640;28;20056;-80
2023/10/21 02:51:30;;;;;;;0.75;0.50;;;14.90;99.90;;;;;;6268071;28;20525;-79
2023/10/21 02:54:33;;;;;;;0.28;0.28;;;15.00;99.90;;;;;;6278135;28;20568;-79
2023/10/21 02:57:35;;;;;;;0.30;0.30;;;15.00;99.90;;;;;;6268851;28;20049;-77
2023/10/21 03:00:37;;;;;;;0.35;0.35;;;15.00;99.90;;;;;;6276751;28;20044;-79
2023/10/21 03:03:39;;;;;;;0.60;0.43;;;15.00;99.90;;;;;;6276190;28;20041;-79
2023/10/21 03:06:41;;;;;;;0.38;0.38;;;15.10;99.90;;;;;;6277016;28;20045;-79
2023/10/21 03:09:44;;;;;;;0.30;0.30;;;15.10;99.90;;;;;;6268935;28;20084;-78
2023/10/21 03:12:45;;;;;;;0.20;0.20;;;15.20;99.90;;;;;;6276182;28;20071;-80
2023/10/21 03:15:47;;;;;;;0.93;0.25;;;15.20;99.90;;;;;;6275412;28;20067;-78
2023/10/21 03:18:49;;;;;;;0.20;0.20;;;15.20;99.90;;;;;;6269577;28;22395;-78
2023/10/21 03:21:50;;;;;;;0.32;0.32;;;15.20;99.90;;;;;;6274284;28;20059;-78
2023/10/21 03:24:53;;;;;;;0.38;0.38;;;15.20;99.90;;;;;;6277765;28;20045;-79
2023/10/21 03:27:55;;;;;;;0.20;0.20;;;15.10;99.90;;;;;;6268222;28;20049;-78
2023/10/21 03:30:57;;;;;;;0.20;0.20;;;15.10;99.90;;;;;;6276776;28;20172;-80
2023/10/21 03:33:59;;;;;;;1.48;0.38;;;15.20;99.90;;;;;;6275037;28;20059;-77
2023/10/21 03:37:01;;;;;;;0.25;0.25;;;15.10;99.90;;;;;;6271884;28;20056;-80
2023/10/21 03:40:05;;;;;;;4.35;0.35;;;15.10;99.90;;;;;;6256052;28;20045;-80
2023/10/21 03:43:07;;;;;;;0.20;0.20;;;15.10;99.90;;;;;;6277477;28;20049;-78
2023/10/21 03:46:14;;;;;;;0.40;0.40;;;15.10;99.90;;;;;;6268240;28;20053;-80
2023/10/21 03:49:17;;;;;;;0.17;0.17;;;15.10;99.90;;;;;;6268464;28;20076;-79
2023/10/21 03:52:19;;;;;;;0.80;0.32;;;15.20;99.90;;;;;;6262272;28;20124;-80
2023/10/21 03:55:23;;;;;;;0.80;0.20;;;15.20;99.90;;;;;;6269269;28;20041;-79
2023/10/21 03:58:25;;;;;;;0.30;0.30;;;15.20;99.90;;;;;;6277288;28;20414;-80
2023/10/21 04:01:26;;;;;;;3.83;0.50;;;15.20;99.90;;;;;;6278564;28;20044;-80
2023/10/21 04:04:28;;;;;;;0.20;0.20;;;15.20;99.90;;;;;;6252168;28;20452;-77
2023/10/21 04:07:30;;;;;;;1.80;0.28;;;15.20;99.90;;;;;;6277032;28;20436;-79
2023/10/21 04:10:33;;;;;;;0.30;0.30;;;15.20;99.90;;;;;;6269365;28;20620;-80
2023/10/21 04:13:35;;;;;;;0.15;0.15;;;15.20;99.90;;;;;;6278455;28;20478;-79
2023/10/21 04:16:42;;;;;;;0.30;0.20;;;15.20;99.90;;;;;;6277556;28;20586;-79
2023/10/21 04:19:43;;;;;;;1.00;0.40;;;15.20;99.90;;;;;;6275986;28;20445;-80
2023/10/21 04:22:45;;;;;;;0.13;0.13;;;15.30;99.90;;;;;;6276875;28;20119;-80
2023/10/21 04:25:48;;;;;;;1.85;0.55;;;15.30;99.90;;;;;;6265430;28;20049;-80
2023/10/21 04:28:50;;;;;;;0.45;0.40;;;15.30;99.90;;;;;;6275649;28;20068;-80
2023/10/21 04:31:52;;;;;;;0.35;0.35;;;15.30;99.90;;;;;;6267328;28;20041;-81
2023/10/21 04:34:53;;;;;;;0.32;0.32;;;15.30;99.90;;;;;;6275584;28;20049;-80
2023/10/21 04:37:55;;;;;;;0.50;0.50;;;15.30;99.90;;;;;;6276962;28;20064;-79
2023/10/21 04:40:58;;;;;;;2.45;0.30;;;15.30;99.90;;;;;;6276028;28;20049;-79
2023/10/21 04:44:00;;;;;;;5.65;0.77;;;15.40;99.90;;;;;;6275890;28;20532;-80
2023/10/21 04:47:02;;;;;;;1.55;0.65;;;15.40;99.90;;;;;;6271306;28;20544;-80
2023/10/21 04:50:04;;;;;;;0.88;0.30;;;15.40;99.90;;;;;;6272154;28;20060;-80
2023/10/21 04:53:06;;;;;;;0.47;0.47;;;15.40;99.90;;;;;;6275752;28;20139;-81
2023/10/21 04:56:09;;;;;;;0.93;0.32;;;15.40;99.90;;;;;;6267211;28;20049;-80
2023/10/21 04:59:11;;;;;;;0.20;0.20;;;15.40;99.90;;;;;;6275190;28;20055;-81
2023/10/21 05:02:12;;;;;;;0.38;0.38;;;15.40;99.90;;;;;;6267463;28;20055;-80
2023/10/21 05:05:14;;;;;;;0.30;0.30;;;15.40;99.90;;;;;;6269574;28;20052;-80
2023/10/21 05:08:17;;;;;;;0.32;0.32;;;15.40;99.90;;;;;;6265214;28;20037;-80
2023/10/21 05:11:20;;;;;;;1.02;0.38;;;15.30;99.90;;;;;;6269650;28;20120;-81
2023/10/21 05:14:21;;;;;;;0.30;0.25;;;15.20;99.90;;;;;;6274529;28;20140;-79
2023/10/21 05:17:23;;;;;;;0.60;0.40;;;15.20;99.90;;;;;;6276061;28;20509;-81
2023/10/21 05:20:25;;;;;;;0.43;0.22;;;15.10;99.90;;;;;;6275320;28;20494;-80
2023/10/21 05:23:27;;;;;;;0.30;0.30;;;15.10;99.90;;;;;;6267421;28;20068;-81
2023/10/21 05:26:30;;;;;;;0.60;0.40;;;15.10;99.90;;;;;;6277257;28;20053;-81
2023/10/21 05:29:31;;;;;;;1.17;0.30;;;15.10;99.90;;;;;;6276709;28;20119;-82
2023/10/21 05:32:33;;;;;;;0.70;0.22;;;15.10;99.90;;;;;;6276307;28;20041;-80
2023/10/21 05:35:35;;;;;;;0.20;0.20;;;15.20;99.90;;;;;;6269871;28;20052;-81
2023/10/21 05:38:36;;;;;;;1.30;0.47;;;15.20;99.90;;;;;;6268463;28;20055;-81
2023/10/21 05:41:40;;;;;;;0.30;0.30;;;15.20;99.90;;;;;;6281113;28;20083;-79
2023/10/21 05:44:41;;;;;;;0.50;0.40;;;15.20;99.90;;;;;;6282128;28;20047;-82
2023/10/21 05:47:43;;;;;;;0.98;0.40;;;15.20;99.90;;;;;;6272348;28;20450;-81
2023/10/21 05:50:45;;;;;;;0.30;0.30;;;15.20;99.90;;;;;;6279802;28;20056;-78
2023/10/21 05:53:47;;;;;;;0.45;0.25;;;15.20;99.90;;;;;;6271974;28;20045;-80
2023/10/21 05:56:50;;;;;;;0.70;0.35;;;15.30;99.90;;;;;;6281989;22;20032;-81
2023/10/21 05:59:52;;;;;;;0.10;0.10;;;15.30;99.90;;;;;;6279182;28;20063;-80
2023/10/21 06:02:53;;;;;;;0.55;0.38;;;15.20;99.90;;;;;;6285950;28;20477;-80
2023/10/21 06:05:55;;;;;;;10.45;0.98;;;15.20;99.90;;;;;;6295367;28;20420;-81
2023/10/21 06:08:57;;;;;;;0.30;0.30;;;15.20;99.90;;;;;;6288211;28;20436;-80
2023/10/21 06:12:00;;;;;;;0.45;0.45;;;15.10;99.90;;;;;;6290029;28;20048;-81
2023/10/21 06:15:03;;;;;;;1.00;0.47;;;15.10;99.90;;;;;;6289732;28;20059;-80
2023/10/21 06:18:05;;;;;;;0.20;0.20;;;15.10;99.90;;;;;;6293890;28;20489;-78
2023/10/21 06:21:07;;;;;;;0.22;0.22;;;15.20;99.90;;;;;;6289845;28;20040;-80
2023/10/21 06:24:09;;;;;;;0.28;0.28;;;15.10;99.90;;;;;;6285479;28;20051;-80
2023/10/21 06:27:12;;;;;;;2.42;0.32;;;15.10;99.90;;;;;;6289807;28;20063;-83
2023/10/21 06:30:14;;;;;;;0.40;0.40;;;15.20;99.90;;;;;;6281451;28;20048;-83
2023/10/21 06:33:16;;;;;;;0.65;0.60;;;15.20;99.90;;;;;;6278167;28;20037;-80
2023/10/21 06:36:18;;;;;;;0.45;0.45;;;15.30;99.90;;;;;;6286542;28;20041;-81
2023/10/21 06:39:20;;;;;;;4.93;0.45;;;15.30;99.90;;;;;;6291565;28;20051;-81
2023/10/21 06:42:23;;;;;;;0.20;0.20;;;15.40;99.90;;;;;;6296656;28;20055;-82
2023/10/21 06:45:25;;;;;;;2.45;0.45;;;15.50;99.90;;;;;;6294183;28;20420;-81
2023/10/21 06:48:28;;;;;;;0.73;0.55;;;15.50;99.90;;;;;;6303900;28;20044;-79
2023/10/21 06:51:29;;;;;;;0.63;0.40;;;15.60;99.90;;;;;;6303149;28;20136;-79
2023/10/21 06:54:31;;;;;;;0.52;0.20;;;15.70;99.90;;;;;;6296996;28;20103;-80
2023/10/21 06:57:34;;;;;;;0.65;0.40;;;15.90;99.90;;;;;;6303119;28;20044;-80
2023/10/21 07:00:36;;;;;;;0.73;0.40;;;16.10;99.90;;;;;;6297045;28;20044;-80
2023/10/21 07:03:38;;;;;;;0.32;0.32;;;16.40;99.90;;;;;;6288001;28;20063;-81
2023/10/21 07:06:40;;;;;;;1.08;0.57;;;16.60;99.90;;;;;;6287595;28;20067;-80
2023/10/21 07:09:42;;;;;;;2.03;0.50;;;16.80;99.90;;;;;;6289463;28;20057;-79
2023/10/21 07:12:45;;;;;;;1.13;0.93;;;17.00;99.90;;;;;;6290142;28;20052;-81
2023/10/21 07:15:47;;;;;;;0.43;0.43;;;17.10;99.90;;;;;;6305992;28;20072;-83
2023/10/21 07:18:49;;;;;;;5.03;0.57;;;17.10;99.90;;;;;;6303314;28;20040;-83
2023/10/21 07:21:51;;;;;;;0.40;0.40;;;17.10;99.90;;;;;;6288113;28;20175;-79
2023/10/21 07:24:55;;;;;;;1.10;0.50;;;17.30;99.90;;;;;;6279404;28;20271;-81
2023/10/21 07:27:58;;;;;;;1.80;0.35;;;17.30;99.90;;;;;;6298211;28;20041;-81
2023/10/21 07:31:00;;;;;;;0.47;0.47;;;17.30;99.90;;;;;;6292051;28;20041;-80
2023/10/21 07:34:02;;;;;;;0.55;0.40;;;17.20;99.90;;;;;;6291620;28;20049;-79
2023/10/21 07:37:04;;;;;;;1.38;1.02;;;17.20;99.90;;;;;;6284730;28;20049;-77
2023/10/21 07:40:07;;;;;;;0.30;0.30;;;17.30;99.90;;;;;;6278134;28;20156;-80
2023/10/21 07:43:10;;;;;;;0.40;0.40;;;17.30;99.90;;;;;;6281474;28;20051;-80
2023/10/21 07:46:13;;;;;;;0.38;0.38;;;17.20;99.90;;;;;;6283879;28;20474;-81
2023/10/21 07:49:14;;;;;;;0.95;0.40;;;17.10;99.90;;;;;;6304382;28;20047;-81
2023/10/21 07:52:16;;;;;;;1.45;0.43;;;17.10;99.90;;;;;;6301058;28;20044;-80
2023/10/21 07:55:18;;;;;;;0.63;0.50;;;17.00;99.90;;;;;;6293942;28;20052;-82
2023/10/21 07:58:22;;;;;;;1.65;0.80;;;16.90;99.90;;;;;;6290181;28;20055;-83
2023/10/21 08:01:24;;;;;;;0.57;0.30;;;17.30;99.90;;;;;;6283753;28;20040;-84
2023/10/21 08:04:25;;;;;;;2.28;1.50;;;17.50;99.90;;;;;;6295640;28;20044;-81
2023/10/21 08:07:27;;;;;;;0.30;0.30;;;17.50;99.90;;;;;;6285428;28;20033;-85
2023/10/21 08:10:29;;;;;;;0.63;0.50;;;17.30;99.90;;;;;;6285394;28;20048;-78
2023/10/21 08:13:32;;;;;;;0.22;0.22;;;17.20;99.90;;;;;;6293810;28;20041;-81
2023/10/21 08:16:34;;;;;;;0.35;0.30;;;17.40;99.90;;;;;;6284482;28;20045;-80
2023/10/21 08:19:36;;;;;;;0.45;0.45;;;17.90;99.90;;;;;;6283749;28;20062;-80
2023/10/21 08:22:39;;;;;;;0.43;0.22;;;18.30;99.90;;;;;;6292993;28;20045;-80
2023/10/21 08:25:40;;;;;;;2.60;0.50;;;18.20;99.90;;;;;;6293367;28;20049;-82
2023/10/21 08:28:43;;;;;;;1.77;0.22;;;17.80;99.90;;;;;;6302521;28;20070;-79
2023/10/21 08:31:45;;;;;;;2.38;0.50;;;17.70;99.90;;;;;;6292640;28;20040;-80
2023/10/21 08:34:47;;;;;;;2.50;0.80;;;18.00;99.90;;;;;;6292183;28;20095;-82
2023/10/21 08:37:49;;;;;;;2.80;0.98;;;18.30;99.90;;;;;;6281520;28;20041;-82
2023/10/21 08:40:50;;;;;;;2.10;0.70;;;18.60;99.90;;;;;;6293026;28;20131;-80
2023/10/21 08:43:54;;;;;;;1.50;0.50;;;19.00;99.90;;;;;;6292585;28;20040;-80
2023/10/21 08:46:56;;;;;;;0.30;0.30;;;19.30;99.90;;;;;;6299148;28;20048;-79
2023/10/21 08:49:59;;;;;;;0.75;0.57;;;19.40;99.90;;;;;;6300980;28;20075;-82
2023/10/21 08:53:01;;;;;;;0.60;0.60;;;19.50;99.90;;;;;;6309224;28;20041;-81
2023/10/21 08:56:03;;;;;;;1.42;1.20;;;19.40;99.90;;;;;;6313839;28;20142;-79
2023/10/21 08:59:07;;;;;;;0.30;0.30;;;19.20;99.90;;;;;;6287882;28;20044;-80
2023/10/21 09:02:09;;;;;;;0.88;0.52;;;19.00;99.90;;;;;;6300369;28;20516;-80
2023/10/21 09:05:11;;;;;;;6.00;5.40;;;18.90;99.90;;;;;;6304656;28;20676;-81
2023/10/21 09:08:16;;;;;;;7.47;5.28;;;19.10;99.90;;;;;;6304515;28;20050;-79
2023/10/21 09:11:20;;;;;;;1.67;1.25;;;19.20;99.90;;;;;;6296734;28;20064;-79
2023/10/21 09:14:23;;;;;;;4.20;1.58;;;19.10;99.90;;;;;;6287989;28;20456;-82
2023/10/21 09:17:35;;;;;;;3.15;2.50;;;19.10;99.90;;;;;;6297103;28;20041;-78
2023/10/21 09:20:38;;;;;;;1.48;0.63;;;19.20;99.90;;;;;;6292147;28;20048;-80
2023/10/21 09:23:51;;;;;;;0.45;0.30;;;19.10;99.90;;;;;;6304832;28;20044;-81
2023/10/21 09:26:52;;;;;;;4.38;3.47;;;18.90;99.90;;;;;;6297501;28;20048;-82
2023/10/21 09:29:55;;;;;;;2.47;1.17;;;19.00;99.90;;;;;;6294494;28;20060;-83
2023/10/21 09:33:02;;;;;;;3.65;2.08;;;19.40;99.90;;;;;;6303372;28;20051;-81
2023/10/21 09:36:06;;;;;;;0.50;0.50;;;19.80;99.90;;;;;;6303245;28;20545;-83
2023/10/21 09:39:08;;;;;;;3.55;2.50;;;20.20;99.90;;;;;;6289270;28;20442;-80
2023/10/21 09:42:11;;;;;;;1.90;0.75;;;20.70;99.90;;;;;;6291723;28;20045;-80
2023/10/21 09:45:15;;;;;;;1.48;0.50;;;21.10;99.90;;;;;;6294001;28;20112;-82
2023/10/21 09:48:18;;;;;;;1.08;0.30;;;21.40;99.90;;;;;;6303007;28;20047;-80
2023/10/21 09:51:21;;;;;;;0.20;0.20;;;21.40;99.90;;;;;;6300201;28;20059;-79
2023/10/21 09:54:43;;;;;;;0.70;0.60;;;21.40;99.90;;;;;;6291359;28;20062;-82
2023/10/21 09:57:48;;;;;;;2.17;0.35;;;21.30;99.90;;;;;;6296443;28;20048;-83
2023/10/21 10:00:51;;;;;;;1.27;0.35;;;21.50;99.90;;;;;;6294778;28;20486;-80
2023/10/21 10:03:55;;;;;;;2.00;0.28;;;21.60;99.90;;;;;;6291962;28;20168;-82
2023/10/21 10:06:59;;;;;;;0.22;0.20;;;21.80;99.90;;;;;;6298597;28;20049;-81
2023/10/21 10:10:02;;;;;;;0.98;0.45;;;22.00;99.90;;;;;;6300926;28;20542;-81
2023/10/21 10:13:09;;;;;;;0.90;0.90;;;22.10;99.90;;;;;;6282506;28;20053;-79
2023/10/21 10:16:22;;;;;;;0.30;0.20;;;22.10;99.90;;;;;;6289385;28;20040;-80
2023/10/21 10:19:38;;;;;;;0.63;0.40;;;22.30;99.90;;;;;;6299408;28;20095;-81
2023/10/21 10:22:43;;;;;;;1.23;0.38;;;22.10;99.90;;;;;;6297180;28;20540;-82
2023/10/21 10:25:46;;;;;;;5.75;0.55;;;22.10;99.90;;;;;;6308617;28;20048;-79
2023/10/21 10:28:48;;;;;;;1.00;0.50;;;22.10;99.90;;;;;;6295982;28;20064;-80
2023/10/21 10:32:11;;;;;;;2.30;0.40;;;22.40;99.90;;;;;;6298969;28;20044;-82
2023/10/21 10:35:29;;;;;;;1.80;0.98;;;22.60;99.90;;;;;;6299158;28;20054;-82
2023/10/21 10:38:33;;;;;;;9.02;8.15;;;22.50;99.90;;;;;;6306063;28;20056;-80
2023/10/21 10:41:48;;;;;;;0.88;0.50;;;22.40;99.90;;;;;;6311338;28;20052;-81
2023/10/21 10:44:50;;;;;;;2.30;1.42;;;22.10;99.90;;;;;;6298851;28;20044;-82
2023/10/21 10:48:00;;;;;;;1.52;0.60;;;22.10;99.90;;;;;;6309742;28;20044;-81
2023/10/21 10:51:10;;;;;;;6.88;1.83;;;22.00;99.90;;;;;;6299432;28;20048;-80
2023/10/21 10:54:17;;;;;;;3.08;2.55;;;21.40;99.90;;;;;;6294227;28;20052;-79
2023/10/21 10:57:19;;;;;;;4.65;3.65;;;20.90;99.90;;;;;;6283905;28;20050;-82
2023/10/21 11:00:25;;;;;;;8.13;4.57;;;20.60;99.90;;;;;;6301384;28;20041;-83
2023/10/21 11:03:31;;;;;;;0.90;0.90;;;20.30;99.90;;;;;;6288177;28;20044;-80
2023/10/21 11:06:35;;;;;;;0.35;0.32;;;20.20;99.90;;;;;;6291124;28;20048;-81
2023/10/21 11:09:38;;;;;;;10.02;5.85;;;20.20;99.90;;;;;;6305064;28;20040;-82
2023/10/21 11:12:40;;;;;;;2.38;1.92;;;20.40;99.90;;;;;;6302858;28;20063;-80
2023/10/21 11:15:44;;;;;;;2.25;0.88;;;20.40;99.90;;;;;;6299827;28;20104;-81
2023/10/21 11:18:47;;;;;;;3.78;2.08;;;20.30;99.90;;;;;;6306762;28;20085;-81
2023/10/21 11:21:50;;;;;;;0.98;0.80;;;20.20;99.90;;;;;;6303660;28;20048;-79
2023/10/21 11:24:51;;;;;;;0.63;0.40;;;20.20;99.90;;;;;;6296751;28;20051;-81
2023/10/21 11:27:53;;;;;;;1.35;0.57;;;20.10;99.90;;;;;;6288094;28;20470;-80
2023/10/21 11:30:57;;;;;;;2.10;0.60;;;19.90;99.90;;;;;;6297323;28;20128;-82
2023/10/21 11:34:09;;;;;;;3.65;0.73;;;19.80;99.90;;;;;;6297751;28;20049;-82
2023/10/21 11:37:12;;;;;;;47.40;31.48;;;19.80;99.90;;;;;;6285575;28;20516;-81
2023/10/21 11:40:15;;;;;;;3.85;3.13;;;19.80;99.90;;;;;;6277948;28;20049;-79
2023/10/21 11:43:19;;;;;;;0.98;0.98;;;20.00;99.90;;;;;;6290175;28;20104;-80
2023/10/21 11:46:21;;;;;;;1.75;0.68;;;20.00;99.90;;;;;;6305088;28;20090;-83
2023/10/21 11:49:26;;;;;;;0.88;0.60;;;19.90;99.90;;;;;;6298612;28;20048;-79
2023/10/21 11:52:28;;;;;;;0.52;0.50;;;19.70;99.90;;;;;;6298554;28;20071;-80
2023/10/21 12:03:15;;;;;;;1.45;0.40;;;19.30;99.90;;;;;;6295710;28;20048;-82
2023/10/21 12:06:15;;;;;;;1.88;0.60;;;19.50;99.90;;;;;;6288123;28;20047;-82
2023/10/21 12:10:18;;;;;;;1.10;0.50;;;19.70;99.90;;;;;;6290273;28;20128;-81
2023/10/21 12:13:20;;;;;;;1.75;0.40;;;20.10;99.90;;;;;;6297236;28;20052;-81
2023/10/21 12:19:51;;;;;;;2.78;0.50;;;21.20;99.90;;;;;;6299821;28;20606;-83
2023/10/21 12:23:12;;;;;;;;;;;21.00;99.90;;;;;;6290075;28;20444;-81
2023/10/21 12:26:20;;;;;;;1.20;0.30;;;21.10;99.90;;;;;;6294278;28;19920;-82
2023/10/21 12:30:23;;;;;;;0.60;0.50;;;21.40;99.90;;;;;;6296728;28;20563;-79
2023/10/21 12:33:42;;;;;;;0.22;0.22;;;21.40;99.90;;;;;;6302881;28;20112;-81
2023/10/21 12:37:01;;;;;;;0.77;0.60;;;21.20;99.90;;;;;;6289763;28;20037;-81
2023/10/21 12:43:37;;;;;;;0.93;0.47;;;21.30;99.90;;;;;;6309712;27;20450;-81
2023/10/21 12:46:40;;;;;;;1.20;0.70;;;21.30;99.90;;;;;;6276806;28;20041;-80
2023/10/21 12:49:43;;;;;;;0.98;0.30;;;21.10;99.90;;;;;;6275515;28;20045;-78
2023/10/21 12:52:45;;;;;;;1.65;0.65;;;21.10;99.90;;;;;;6272275;28;20037;-79
2023/10/21 12:55:47;;;;;;;0.22;0.20;;;21.20;99.90;;;;;;6273583;28;20447;-79
2023/10/21 12:58:50;;;;;;;2.08;0.35;;;21.50;99.90;;;;;;6274871;28;20049;-80
2023/10/21 13:01:52;;;;;;;0.30;0.30;;;21.70;99.90;;;;;;6273480;28;20049;-80
2023/10/21 13:04:53;;;;;;;0.50;0.35;;;21.90;99.90;;;;;;6273459;28;20136;-81
2023/10/21 13:07:55;;;;;;;5.53;1.27;;;22.00;99.90;;;;;;6271501;28;20045;-80
2023/10/21 13:10:57;;;;;;;1.08;0.40;;;21.90;99.90;;;;;;6271774;28;20065;-83
2023/10/21 13:14:00;;;;;;;0.40;0.20;;;21.90;99.90;;;;;;6271567;28;20052;-79
2023/10/21 13:17:06;;;;;;;3.33;0.60;;;21.90;99.90;;;;;;6280559;28;20498;-80
2023/10/21 13:20:16;;;;;;;3.15;0.52;;;21.90;99.90;;;;;;6278719;28;20059;-80
2023/10/21 13:23:17;;;;;;;1.90;0.88;;;22.00;99.90;;;;;;6276491;28;20049;-80
2023/10/21 13:26:19;;;;;;;0.30;0.30;;;22.10;99.90;;;;;;6280283;28;20055;-81
2023/10/21 13:29:22;;;;;;;0.60;0.50;;;22.30;99.90;;;;;;6275829;28;20052;-79
2023/10/21 13:32:24;;;;;;;0.57;0.52;;;22.50;99.90;;;;;;6271069;28;20037;-80
2023/10/21 13:35:26;;;;;;;1.92;0.20;;;22.80;99.90;;;;;;6271311;28;20064;-81
2023/10/21 13:38:27;;;;;;;0.28;0.28;;;22.60;99.90;;;;;;6274926;28;20052;-80
2023/10/21 13:41:29;;;;;;;1.27;0.47;;;22.60;99.90;;;;;;6275852;28;20043;-82
2023/10/21 13:44:34;;;;;;;1.45;0.55;;;22.70;99.90;;;;;;6274616;28;20041;-79
2023/10/21 13:47:36;;;;;;;1.95;0.30;;;22.60;99.90;;;;;;6254750;28;20091;-78
2023/10/21 13:50:38;;;;;;;0.63;0.40;;;22.30;99.90;;;;;;6273026;28;20121;-79
2023/10/21 13:53:40;;;;;;;0.82;0.50;;;22.10;99.90;;;;;;6263752;28;20053;-79
2023/10/21 13:56:42;;;;;;;0.70;0.38;;;22.30;99.90;;;;;;6256066;28;20503;-79
2023/10/21 13:59:47;;;;;;;0.60;0.28;;;22.30;99.90;;;;;;6256994;28;20037;-79
2023/10/21 14:02:49;;;;;;;6.97;0.60;;;22.40;99.90;;;;;;6256434;28;20041;-81
2023/10/21 14:05:52;;;;;;;0.65;0.63;;;22.50;99.50;;;;;;6255341;28;20120;-80
2023/10/21 14:08:54;;;;;;;0.30;0.30;;;22.50;99.40;;;;;;6255365;28;20517;-81
2023/10/21 14:11:56;;;;;;;3.97;0.38;;;22.50;99.40;;;;;;6255872;28;20136;-80
2023/10/21 14:15:05;;;;;;;0.60;0.30;;;22.60;98.90;;;;;;6246978;28;20390;-80
2023/10/21 14:18:10;;;;;;;1.15;0.63;;;22.60;98.20;;;;;;6255836;28;20045;-80
2023/10/21 14:21:13;;;;;;;1.63;0.88;;;22.50;97.60;;;;;;6243230;28;20124;-81
2023/10/21 14:24:15;;;;;;;2.55;0.50;;;22.30;96.70;;;;;;6255046;28;20052;-81
2023/10/21 14:27:19;;;;;;;2.53;0.52;;;22.10;97.10;;;;;;6253350;28;20057;-79
2023/10/21 14:30:22;;;;;;;2.75;0.52;;;22.00;97.20;;;;;;6253887;28;20057;-80
2023/10/21 14:33:27;;;;;;;1.67;0.60;;;21.90;96.70;;;;;;6253352;28;20042;-82
2023/10/21 14:36:29;;;;;;;0.50;0.38;;;21.90;97.30;;;;;;6250413;28;20041;-80
2023/10/21 14:39:34;;;;;;;2.55;0.50;;;22.00;97.40;;;;;;6255551;28;20068;-79
2023/10/21 14:42:37;;;;;;;5.30;1.60;;;21.90;96.70;;;;;;6256610;28;20048;-81
2023/10/21 14:45:42;;;;;;;1.45;0.82;;;21.80;96.50;;;;;;6257287;28;20049;-80
2023/10/21 14:48:44;;;;;;;2.33;1.00;;;21.60;96.70;;;;;;6257605;28;20049;-81
2023/10/21 14:51:46;;;;;;;2.92;0.98;;;21.70;97.10;;;;;;6257499;28;20048;-80
2023/10/21 14:54:48;;;;;;;1.23;0.32;;;21.60;97.10;;;;;;6256838;28;20451;-80
2023/10/21 14:57:50;;;;;;;3.72;1.00;;;21.60;97.10;;;;;;6257120;28;20064;-81
2023/10/21 15:00:54;;;;;;;2.10;0.38;;;21.50;97.10;;;;;;6256101;28;20169;-81
2023/10/21 15:03:55;;;;;;;0.35;0.15;;;21.50;97.00;;;;;;6255143;28;20053;-80
2023/10/21 15:06:57;;;;;;;1.63;0.60;;;21.40;97.00;;;;;;6255533;28;20104;-81
2023/10/21 15:09:59;;;;;;;1.08;0.32;;;21.50;97.30;;;;;;6256680;28;20386;-81
2023/10/21 15:13:01;;;;;;;0.60;0.55;;;21.50;97.30;;;;;;6253909;28;20109;-81
2023/10/21 15:16:04;;;;;;;0.98;0.70;;;21.30;96.70;;;;;;6252936;28;20045;-82
2023/10/21 15:19:06;;;;;;;1.20;0.55;;;21.00;96.80;;;;;;6252515;28;20472;-80
2023/10/21 15:22:08;;;;;;;2.40;0.80;;;20.60;96.90;;;;;;6253197;28;20051;-80
2023/10/21 15:25:11;;;;;;;2.70;0.57;;;20.20;97.50;;;;;;6254962;28;20055;-79
2023/10/21 15:28:12;;;;;;;3.08;0.60;;;19.90;97.60;;;;;;6253415;28;20053;-80
2023/10/21 15:31:17;;;;;;;0.82;0.40;;;19.60;97.70;;;;;;6250531;28;20131;-80
2023/10/21 15:34:21;;;;;;;1.60;0.50;;;19.20;97.90;;;;;;6253225;28;20505;-81
2023/10/21 15:37:23;;;;;;;1.25;0.60;;;18.90;98.20;;;;;;6254992;28;20124;-81
2023/10/21 15:40:27;;;;;;;8.63;0.93;;;18.70;98.50;;;;;;6257965;28;20046;-77
2023/10/21 15:43:30;;;;;;;5.78;2.35;;;18.40;98.70;;;;;;6250010;28;20056;-80
2023/10/21 15:46:33;;;;;;;1.45;0.70;;;18.20;98.80;;;;;;6248970;28;20366;-80
2023/10/21 15:49:36;;;;;;;2.78;0.75;;;18.10;98.80;;;;;;6254522;28;20469;-81
2023/10/21 15:52:38;;;;;;;0.55;0.40;;;18.00;98.90;;;;;;6253428;28;20037;-79
2023/10/21 15:55:39;;;;;;;2.85;0.60;;;17.90;98.90;;;;;;6250207;28;20045;-80
2023/10/21 15:58:43;;;;;;;1.17;0.45;;;17.70;98.80;;;;;;6251678;28;20130;-80
2023/10/21 16:01:46;;;;;;;0.82;0.40;;;17.60;98.80;;;;;;6252929;28;20520;-79
2023/10/21 16:04:47;;;;;;;1.33;0.80;;;17.50;99.00;;;;;;6249938;28;20045;-77
2023/10/21 16:07:49;;;;;;;1.75;0.60;;;17.30;99.40;;;;;;6252901;28;20049;-79
2023/10/21 16:11:00;;;;;;;5.97;0.70;;;17.20;99.90;;;;;;6246751;28;20041;-78